createdAt,value
2023-10-07T00:02:42.880Z,64.01
2023-10-07T00:05:33.167Z,64.14
2023-10-07T00:08:18.028Z,64.27
2023-10-07T00:11:01.598Z,64.17
2023-10-07T00:13:45.983Z,64.22
2023-10-07T00:16:29.435Z,64.36
2023-10-07T00:19:14.586Z,64.36
2023-10-07T00:22:00.344Z,64.48
2023-10-07T00:24:46.854Z,64.61
2023-10-07T00:27:39.431Z,64.51
2023-10-07T00:30:28.318Z,64.66
2023-10-07T00:33:12.032Z,64.72
2023-10-07T00:35:55.689Z,64.79
2023-10-07T00:38:39.619Z,64.91
2023-10-07T00:41:25.537Z,64.84
2023-10-07T00:44:19.973Z,65.00
2023-10-07T00:47:15.161Z,64.85
2023-10-07T00:49:59.177Z,65.30
2023-10-07T00:52:58.775Z,64.90
2023-10-07T00:55:43.156Z,65.10
2023-10-07T00:58:29.653Z,65.11
2023-10-07T01:01:13.973Z,65.17
2023-10-07T01:04:03.157Z,65.21
2023-10-07T01:06:46.983Z,65.22
2023-10-07T01:09:30.260Z,65.17
2023-10-07T01:12:14.328Z,65.33
2023-10-07T01:14:59.011Z,65.36
2023-10-07T01:17:43.530Z,65.46
2023-10-07T01:20:36.695Z,65.19
2023-10-07T01:23:25.432Z,65.29
2023-10-07T01:26:16.697Z,65.33
2023-10-07T01:29:13.530Z,65.43
2023-10-07T01:32:01.458Z,65.52
2023-10-07T01:34:52.627Z,65.29
2023-10-07T01:37:44.204Z,65.46
2023-10-07T01:40:33.716Z,65.64
2023-10-07T01:43:16.651Z,65.56
2023-10-07T01:46:11.854Z,65.70
2023-10-07T01:48:58.490Z,65.74
2023-10-07T01:51:45.418Z,65.87
2023-10-07T01:54:30.206Z,66.06
2023-10-07T01:57:16.566Z,66.13
2023-10-07T01:59:59.884Z,66.18
2023-10-07T02:02:49.900Z,66.06
2023-10-07T02:05:42.033Z,66.25
2023-10-07T02:08:26.473Z,66.37
2023-10-07T02:11:10.890Z,66.43
2023-10-07T02:13:56.660Z,66.28
2023-10-07T02:16:39.759Z,66.19
2023-10-07T02:19:30.499Z,66.26
2023-10-07T02:22:29.466Z,66.39
2023-10-07T02:25:12.423Z,66.38
2023-10-07T02:27:55.669Z,66.42
2023-10-07T02:31:01.621Z,66.41
2023-10-07T02:33:47.137Z,66.44
2023-10-07T02:36:33.607Z,66.40
2023-10-07T02:39:25.074Z,66.48
2023-10-07T02:42:08.276Z,66.44
2023-10-07T02:44:55.349Z,66.46
2023-10-07T02:47:41.058Z,66.29
2023-10-07T02:50:27.281Z,66.06
2023-10-07T02:53:14.387Z,66.16
2023-10-07T02:55:59.968Z,66.14
2023-10-07T02:58:52.761Z,66.06
2023-10-07T03:01:38.710Z,66.36
2023-10-07T03:04:23.806Z,66.10
2023-10-07T03:07:14.848Z,66.15
2023-10-07T03:10:06.122Z,66.30
2023-10-07T03:12:57.756Z,66.37
2023-10-07T03:15:46.023Z,66.48
2023-10-07T03:18:31.495Z,66.48
2023-10-07T03:21:18.435Z,66.67
2023-10-07T03:24:02.036Z,66.62
2023-10-07T03:26:47.256Z,66.51
2023-10-07T03:29:32.365Z,66.33
2023-10-07T03:32:16.653Z,66.11
2023-10-07T03:34:59.547Z,65.98
2023-10-07T03:37:45.783Z,65.77
2023-10-07T03:40:36.132Z,65.62
2023-10-07T03:43:20.374Z,65.77
2023-10-07T03:46:03.288Z,65.51
2023-10-07T03:48:54.604Z,65.62
2023-10-07T03:51:37.637Z,65.73
2023-10-07T03:54:30.529Z,65.98
2023-10-07T03:57:16.602Z,66.08
2023-10-07T03:59:59.445Z,66.13
2023-10-07T04:02:46.019Z,66.14
2023-10-07T04:05:32.702Z,66.12
2023-10-07T04:08:15.805Z,65.86
2023-10-07T04:11:00.203Z,65.96
2023-10-07T04:13:44.586Z,65.77
2023-10-07T04:16:30.797Z,65.92
2023-10-07T04:19:31.749Z,66.14
2023-10-07T04:22:14.695Z,66.29
2023-10-07T04:25:08.563Z,66.47
2023-10-07T04:27:54.788Z,66.35
2023-10-07T04:30:41.143Z,66.27
2023-10-07T04:33:33.877Z,66.38
2023-10-07T04:36:19.285Z,66.53
2023-10-07T04:39:10.140Z,66.64
2023-10-07T04:41:58.366Z,66.56
2023-10-07T04:45:00.158Z,66.43
2023-10-07T04:47:47.381Z,66.88
2023-10-07T04:50:36.649Z,66.84
2023-10-07T04:53:26.439Z,66.98
2023-10-07T04:56:10.157Z,67.34
2023-10-07T04:58:53.346Z,67.27
2023-10-07T05:01:43.294Z,67.21
2023-10-07T05:04:26.768Z,67.24
2023-10-07T05:07:11.894Z,67.34
2023-10-07T05:09:55.188Z,67.38
2023-10-07T05:12:37.065Z,67.49
2023-10-07T05:15:20.408Z,67.56
2023-10-07T05:18:05.188Z,67.73
2023-10-07T05:20:48.853Z,67.67
2023-10-07T05:23:31.747Z,67.74
2023-10-07T05:26:18.559Z,67.88
2023-10-07T05:29:03.507Z,68.03
2023-10-07T05:31:46.280Z,68.47
2023-10-07T05:34:31.127Z,68.11
2023-10-07T05:37:15.611Z,68.08
2023-10-07T05:40:00.970Z,68.27
2023-10-07T05:42:44.617Z,68.18
2023-10-07T05:45:27.502Z,68.20
2023-10-07T05:48:11.987Z,68.01
2023-10-07T05:50:56.302Z,68.33
2023-10-07T05:53:39.873Z,68.30
2023-10-07T05:56:23.419Z,68.23
2023-10-07T05:59:08.009Z,68.20
2023-10-07T06:01:51.124Z,68.35
2023-10-07T06:04:34.182Z,68.35
2023-10-07T06:07:21.906Z,68.22
2023-10-07T06:10:05.525Z,68.04
2023-10-07T06:12:48.868Z,67.96
2023-10-07T06:15:31.794Z,67.82
2023-10-07T06:18:19.752Z,67.69
2023-10-07T06:21:18.900Z,67.83
2023-10-07T06:24:07.304Z,67.50
2023-10-07T06:26:50.589Z,67.62
2023-10-07T06:29:33.664Z,67.49
2023-10-07T06:32:24.444Z,67.38
2023-10-07T06:35:11.696Z,67.25
2023-10-07T06:37:58.329Z,67.20
2023-10-07T06:40:45.224Z,66.97
2023-10-07T06:43:28.104Z,66.81
2023-10-07T06:46:12.539Z,66.85
2023-10-07T06:48:55.497Z,66.66
2023-10-07T06:51:38.477Z,66.83
2023-10-07T06:54:21.863Z,66.54
2023-10-07T06:57:11.220Z,66.45
2023-10-07T06:59:54.972Z,66.45
2023-10-07T07:02:37.820Z,66.42
2023-10-07T07:05:20.855Z,66.24
2023-10-07T07:08:05.322Z,66.22
2023-10-07T07:10:52.253Z,66.23
2023-10-07T07:13:36.866Z,66.33
2023-10-07T07:16:19.950Z,66.17
2023-10-07T07:19:07.850Z,66.09
2023-10-07T07:21:50.040Z,66.05
2023-10-07T07:24:32.931Z,66.24
2023-10-07T07:27:18.381Z,66.03
2023-10-07T07:30:04.449Z,66.02
2023-10-07T07:32:47.714Z,65.57
2023-10-07T07:35:40.631Z,65.68
2023-10-07T07:38:30.260Z,65.57
2023-10-07T07:41:27.323Z,65.33
2023-10-07T07:44:13.568Z,65.44
2023-10-07T07:46:58.146Z,65.13
2023-10-07T07:49:42.416Z,65.12
2023-10-07T07:52:26.590Z,64.84
2023-10-07T07:55:13.643Z,64.76
2023-10-07T07:57:56.532Z,64.73
2023-10-07T08:00:45.488Z,64.65
2023-10-07T08:03:30.015Z,64.55
2023-10-07T08:06:13.652Z,64.20
2023-10-07T08:08:56.621Z,63.79
2023-10-07T08:11:39.482Z,63.87
2023-10-07T08:14:23.498Z,63.88
2023-10-07T08:17:09.598Z,63.70
2023-10-07T08:19:53.965Z,63.25
2023-10-07T08:22:38.905Z,63.13
2023-10-07T08:25:36.459Z,63.05
2023-10-07T08:28:25.031Z,62.92
2023-10-07T08:31:15.135Z,62.84
2023-10-07T08:34:11.318Z,62.38
2023-10-07T08:37:00.521Z,62.49
2023-10-07T08:39:46.623Z,62.54
2023-10-07T08:42:29.608Z,62.08
2023-10-07T08:45:17.825Z,61.99
2023-10-07T08:48:16.391Z,61.94
2023-10-07T08:51:00.512Z,62.00
2023-10-07T08:53:44.785Z,62.30
2023-10-07T08:56:31.736Z,62.46
2023-10-07T08:59:15.039Z,62.02
2023-10-07T09:02:01.196Z,62.08
2023-10-07T09:04:44.197Z,61.58
2023-10-07T09:07:33.648Z,61.18
2023-10-07T09:10:18.861Z,61.02
2023-10-07T09:13:05.764Z,60.45
2023-10-07T09:15:54.893Z,59.55
2023-10-07T09:18:40.638Z,59.78
2023-10-07T09:21:23.570Z,59.35
2023-10-07T09:24:15.009Z,57.83
2023-10-07T09:26:59.834Z,57.85
2023-10-07T09:29:50.122Z,55.41
2023-10-07T09:32:34.698Z,56.74
2023-10-07T09:35:21.808Z,56.39
2023-10-07T09:38:13.690Z,55.99
2023-10-07T09:41:25.255Z,55.32
2023-10-07T09:44:22.726Z,55.02
2023-10-07T09:47:12.298Z,54.67
2023-10-07T09:50:00.004Z,54.60
2023-10-07T09:52:44.186Z,54.10
2023-10-07T09:55:41.951Z,53.14
2023-10-07T09:58:43.013Z,51.52
2023-10-07T10:01:39.030Z,52.57
2023-10-07T10:04:42.102Z,51.88
2023-10-07T10:07:46.464Z,51.74
2023-10-07T10:10:33.388Z,51.81
2023-10-07T10:13:29.899Z,50.82
2023-10-07T10:16:15.538Z,51.12
2023-10-07T10:19:23.509Z,49.84
2023-10-07T10:22:11.892Z,50.00
2023-10-07T10:25:16.076Z,49.75
2023-10-07T10:28:03.107Z,48.98
2023-10-07T10:30:51.369Z,48.66
2023-10-07T10:33:36.643Z,48.49
2023-10-07T10:36:23.768Z,48.04
2023-10-07T10:39:29.150Z,46.54
2023-10-07T10:42:20.385Z,47.70
2023-10-07T10:45:04.008Z,47.00
2023-10-07T10:47:51.976Z,46.89
2023-10-07T10:50:35.345Z,46.51
2023-10-07T10:53:22.033Z,46.58
2023-10-07T10:56:05.318Z,46.48
2023-10-07T10:58:55.151Z,46.27
2023-10-07T11:01:40.838Z,45.47
2023-10-07T11:04:23.706Z,45.12
2023-10-07T11:07:08.613Z,44.73
2023-10-07T11:09:54.570Z,43.82
2023-10-07T11:12:37.550Z,43.91
2023-10-07T11:15:25.972Z,43.29
2023-10-07T11:18:13.641Z,43.24
2023-10-07T11:20:56.774Z,43.29
2023-10-07T11:23:47.143Z,42.27
2023-10-07T11:26:33.932Z,41.66
2023-10-07T11:29:16.850Z,41.56
2023-10-07T11:32:00.450Z,40.95
2023-10-07T11:34:45.731Z,40.20
2023-10-07T11:37:29.286Z,40.97
2023-10-07T11:40:13.525Z,40.46
2023-10-07T11:42:59.527Z,40.51
2023-10-07T11:45:44.968Z,40.80
2023-10-07T11:48:27.860Z,41.33
2023-10-07T11:51:11.364Z,41.46
2023-10-07T11:53:56.711Z,41.64
2023-10-07T11:56:40.890Z,41.68
2023-10-07T11:59:25.153Z,42.14
2023-10-07T12:02:11.314Z,42.49
2023-10-07T12:04:55.266Z,42.66
2023-10-07T12:07:38.242Z,42.60
2023-10-07T12:10:23.036Z,42.24
2023-10-07T12:13:08.300Z,42.40
2023-10-07T12:16:04.323Z,42.40
2023-10-07T12:18:49.950Z,42.22
2023-10-07T12:21:35.973Z,41.80
2023-10-07T12:24:19.570Z,41.57
2023-10-07T12:27:02.833Z,41.58
2023-10-07T12:29:45.987Z,41.77
2023-10-07T12:32:30.279Z,41.31
2023-10-07T12:35:14.821Z,41.36
2023-10-07T12:37:59.304Z,41.45
2023-10-07T12:40:42.734Z,41.44
2023-10-07T12:43:25.693Z,41.90
2023-10-07T12:46:11.089Z,41.71
2023-10-07T12:48:56.424Z,41.88
2023-10-07T12:51:40.237Z,41.48
2023-10-07T12:54:23.154Z,41.55
2023-10-07T12:57:06.075Z,41.83
2023-10-07T12:59:53.419Z,41.56
2023-10-07T13:02:38.758Z,42.20
2023-10-07T13:05:24.197Z,42.24
2023-10-07T13:08:13.505Z,42.41
2023-10-07T13:10:56.776Z,42.16
2023-10-07T13:13:40.709Z,41.86
2023-10-07T13:16:23.586Z,42.33
2023-10-07T13:19:06.874Z,41.76
2023-10-07T13:21:51.765Z,42.03
2023-10-07T13:24:35.546Z,42.39
2023-10-07T13:27:18.664Z,42.65
2023-10-07T13:30:05.765Z,42.84
2023-10-07T13:32:49.119Z,42.67
2023-10-07T13:35:34.211Z,43.33
2023-10-07T13:38:18.885Z,43.02
2023-10-07T13:41:02.192Z,43.26
2023-10-07T13:43:45.332Z,43.56
2023-10-07T13:46:28.981Z,43.75
2023-10-07T13:49:13.997Z,44.05
2023-10-07T13:52:06.262Z,44.07
2023-10-07T13:55:10.486Z,44.17
2023-10-07T13:57:56.656Z,44.04
2023-10-07T14:00:39.576Z,44.30
2023-10-07T14:03:24.934Z,44.16
2023-10-07T14:06:08.466Z,44.53
2023-10-07T14:08:53.876Z,44.11
2023-10-07T14:11:38.074Z,44.59
2023-10-07T14:14:20.985Z,44.43
2023-10-07T14:17:05.082Z,44.63
2023-10-07T14:19:48.915Z,44.47
2023-10-07T14:22:31.784Z,44.42
2023-10-07T14:25:14.890Z,44.70
2023-10-07T14:27:59.929Z,44.44
2023-10-07T14:30:42.890Z,44.63
2023-10-07T14:33:26.016Z,44.61
2023-10-07T14:36:11.213Z,44.37
2023-10-07T14:38:55.241Z,44.54
2023-10-07T14:41:38.115Z,44.46
2023-10-07T14:44:22.502Z,44.36
2023-10-07T14:47:07.479Z,44.26
2023-10-07T14:49:52.570Z,44.70
2023-10-07T14:52:35.623Z,44.61
2023-10-07T14:55:19.833Z,44.33
2023-10-07T14:58:03.095Z,44.30
2023-10-07T15:00:48.623Z,44.75
2023-10-07T15:03:32.175Z,44.92
2023-10-07T15:06:16.288Z,45.07
2023-10-07T15:08:59.182Z,45.28
2023-10-07T15:11:41.990Z,45.21
2023-10-07T15:14:25.276Z,45.11
2023-10-07T15:17:09.568Z,45.04
2023-10-07T15:19:54.184Z,45.41
2023-10-07T15:22:38.234Z,45.90
2023-10-07T15:25:21.173Z,46.34
2023-10-07T15:28:04.321Z,46.66
2023-10-07T15:30:50.047Z,46.25
2023-10-07T15:33:36.080Z,46.22
2023-10-07T15:36:18.780Z,46.21
2023-10-07T15:39:03.844Z,46.32
2023-10-07T15:41:47.198Z,46.31
2023-10-07T15:44:30.106Z,46.44
2023-10-07T15:47:13.084Z,46.22
2023-10-07T15:49:59.627Z,46.55
2023-10-07T15:52:46.462Z,46.70
2023-10-07T15:55:32.793Z,46.42
2023-10-07T15:58:15.890Z,46.64
2023-10-07T16:01:02.069Z,46.75
2023-10-07T16:03:45.016Z,46.79
2023-10-07T16:06:29.254Z,47.67
2023-10-07T16:09:15.283Z,47.91
2023-10-07T16:11:58.864Z,48.15
2023-10-07T16:14:43.700Z,48.41
2023-10-07T16:17:27.341Z,49.60
2023-10-07T16:20:11.338Z,49.43
2023-10-07T16:22:58.769Z,50.25
2023-10-07T16:25:41.680Z,50.33
2023-10-07T16:28:24.923Z,50.32
2023-10-07T16:31:08.057Z,50.37
2023-10-07T16:33:50.933Z,50.23
2023-10-07T16:36:34.320Z,50.19
2023-10-07T16:39:18.546Z,50.21
2023-10-07T16:42:02.301Z,50.47
2023-10-07T16:44:45.783Z,50.59
2023-10-07T16:47:29.212Z,50.66
2023-10-07T16:50:15.926Z,50.48
2023-10-07T16:52:59.092Z,50.54
2023-10-07T16:55:43.599Z,50.74
2023-10-07T16:58:26.949Z,50.75
2023-10-07T17:01:11.329Z,50.77
2023-10-07T17:03:54.385Z,51.42
2023-10-07T17:06:37.321Z,51.32
2023-10-07T17:09:23.320Z,51.37
2023-10-07T17:12:09.795Z,51.56
2023-10-07T17:14:52.700Z,52.06
2023-10-07T17:17:36.213Z,51.79
2023-10-07T17:20:19.170Z,52.03
2023-10-07T17:23:02.831Z,52.24
2023-10-07T17:25:47.114Z,52.28
2023-10-07T17:28:31.349Z,52.34
2023-10-07T17:31:14.241Z,52.43
2023-10-07T17:33:57.098Z,52.69
2023-10-07T17:36:40.112Z,52.98
2023-10-07T17:39:22.951Z,52.60
2023-10-07T17:42:05.907Z,52.79
2023-10-07T17:44:50.166Z,52.90
2023-10-07T17:47:33.135Z,52.97
2023-10-07T17:50:17.188Z,52.91
2023-10-07T17:53:00.556Z,53.04
2023-10-07T17:55:45.726Z,53.22
2023-10-07T17:58:29.135Z,53.02
2023-10-07T18:01:19.260Z,53.08
2023-10-07T18:04:03.859Z,53.13
2023-10-07T18:06:49.257Z,53.14
2023-10-07T18:09:32.122Z,53.41
2023-10-07T18:12:15.672Z,53.44
2023-10-07T18:14:58.551Z,53.28
2023-10-07T18:17:42.874Z,53.46
2023-10-07T18:20:25.825Z,53.15
2023-10-07T18:23:09.642Z,53.29
2023-10-07T18:25:52.605Z,53.17
2023-10-07T18:28:35.503Z,53.31
2023-10-07T18:31:18.526Z,53.42
2023-10-07T18:34:02.781Z,53.57
2023-10-07T18:36:45.623Z,53.73
2023-10-07T18:39:28.772Z,53.88
2023-10-07T18:42:11.709Z,53.44
2023-10-07T18:44:55.702Z,53.79
2023-10-07T18:47:38.840Z,53.73
2023-10-07T18:50:23.376Z,54.17
2023-10-07T18:53:06.620Z,54.11
2023-10-07T18:55:56.139Z,54.02
2023-10-07T18:58:39.089Z,54.18
2023-10-07T19:01:24.196Z,54.06
2023-10-07T19:04:08.585Z,54.27
2023-10-07T19:06:52.805Z,54.12
2023-10-07T19:09:37.080Z,53.66
2023-10-07T19:12:19.906Z,53.62
2023-10-07T19:15:02.989Z,53.56
2023-10-07T19:17:46.630Z,53.22
2023-10-07T19:20:29.735Z,53.03
2023-10-07T19:23:14.063Z,53.14
2023-10-07T19:26:05.158Z,53.32
2023-10-07T19:28:48.330Z,52.94
2023-10-07T19:31:31.245Z,52.82
2023-10-07T19:34:14.135Z,52.83
2023-10-07T19:36:57.021Z,52.45
2023-10-07T19:39:44.604Z,52.22
2023-10-07T19:42:27.828Z,52.32
2023-10-07T19:45:13.834Z,52.04
2023-10-07T19:47:59.125Z,52.09
2023-10-07T19:50:42.133Z,52.07
2023-10-07T19:53:25.619Z,51.51
2023-10-07T19:56:09.912Z,51.27
2023-10-07T19:58:52.810Z,51.42
2023-10-07T20:01:35.957Z,51.35
2023-10-07T20:04:18.961Z,51.47
2023-10-07T20:07:01.882Z,51.06
2023-10-07T20:09:44.790Z,51.11
2023-10-07T20:12:29.023Z,50.98
2023-10-07T20:15:12.972Z,51.23
2023-10-07T20:17:56.523Z,51.74
2023-10-07T20:20:40.230Z,52.31
2023-10-07T20:23:23.165Z,52.61
2023-10-07T20:26:08.129Z,52.52
2023-10-07T20:28:52.759Z,52.64
2023-10-07T20:31:35.620Z,52.58
2023-10-07T20:34:18.507Z,52.72
2023-10-07T20:37:01.386Z,53.08
2023-10-07T20:39:44.267Z,53.06
2023-10-07T20:42:27.205Z,53.19
2023-10-07T20:45:12.502Z,53.17
2023-10-07T20:47:56.712Z,53.12
2023-10-07T20:50:39.665Z,53.27
2023-10-07T20:53:22.643Z,52.82
2023-10-07T20:56:06.477Z,52.60
2023-10-07T20:58:49.654Z,52.39
2023-10-07T21:01:33.868Z,52.64
2023-10-07T21:04:16.796Z,52.40
2023-10-07T21:07:00.067Z,52.27
2023-10-07T21:09:43.448Z,52.11
2023-10-07T21:12:26.292Z,52.36
2023-10-07T21:15:10.619Z,52.15
2023-10-07T21:17:55.823Z,52.01
2023-10-07T21:20:40.490Z,52.20
2023-10-07T21:23:25.371Z,52.41
2023-10-07T21:26:14.139Z,51.93
2023-10-07T21:28:58.564Z,51.86
2023-10-07T21:31:41.636Z,51.68
2023-10-07T21:34:25.913Z,51.51
2023-10-07T21:37:08.797Z,51.59
2023-10-07T21:39:51.777Z,51.25
2023-10-07T21:42:35.300Z,51.24
2023-10-07T21:45:18.582Z,51.44
2023-10-07T21:48:02.219Z,51.21
2023-10-07T21:50:47.059Z,51.13
2023-10-07T21:53:29.736Z,50.75
2023-10-07T21:56:13.803Z,51.16
2023-10-07T21:58:56.679Z,51.16
2023-10-07T22:01:41.614Z,51.26
2023-10-07T22:04:24.809Z,51.03
2023-10-07T22:07:09.489Z,51.28
2023-10-07T22:09:52.307Z,51.20
2023-10-07T22:12:36.132Z,51.43
2023-10-07T22:15:19.673Z,51.42
2023-10-07T22:18:03.907Z,51.53
2023-10-07T22:20:48.890Z,51.74
2023-10-07T22:23:34.550Z,51.94
2023-10-07T22:26:20.581Z,51.45
2023-10-07T22:29:04.925Z,51.68
2023-10-07T22:31:55.407Z,51.58
2023-10-07T22:34:40.481Z,51.52
2023-10-07T22:37:24.876Z,51.55
2023-10-07T22:40:23.174Z,51.34
2023-10-07T22:43:12.030Z,51.34
2023-10-07T22:45:59.839Z,51.40
2023-10-07T22:48:47.425Z,51.55
2023-10-07T22:51:30.351Z,52.13
2023-10-07T22:54:19.024Z,52.37
2023-10-07T22:57:09.656Z,52.36
2023-10-07T22:59:52.771Z,52.10
2023-10-07T23:02:38.384Z,52.17
2023-10-07T23:05:24.836Z,52.39
2023-10-07T23:08:11.790Z,52.16
2023-10-07T23:10:55.850Z,52.37
2023-10-07T23:13:40.049Z,52.58
2023-10-07T23:16:28.337Z,52.77
2023-10-07T23:19:16.971Z,53.15
2023-10-07T23:22:14.419Z,53.25
2023-10-07T23:25:11.260Z,53.37
2023-10-07T23:27:54.115Z,53.75
2023-10-07T23:30:40.721Z,53.46
2023-10-07T23:33:23.574Z,53.67
2023-10-07T23:36:07.872Z,53.54
2023-10-07T23:38:51.396Z,53.79
2023-10-07T23:41:34.345Z,53.62
2023-10-07T23:44:17.493Z,53.50
2023-10-07T23:47:01.717Z,53.75
2023-10-07T23:49:44.571Z,53.35
2023-10-07T23:52:28.579Z,53.42
2023-10-07T23:55:23.606Z,53.09
2023-10-07T23:58:18.663Z,53.23
